createdAt,value
2023-02-23T00:01:53.355Z,38.47
2023-02-23T00:04:20.204Z,41.30
2023-02-23T00:18:09.865Z,37.57
2023-02-23T00:20:36.807Z,39.67
2023-02-23T00:23:04.542Z,38.90
2023-02-23T00:25:31.231Z,38.27
2023-02-23T00:27:58.300Z,39.23
2023-02-23T00:30:25.203Z,39.57
2023-02-23T00:32:52.782Z,39.50
2023-02-23T00:35:19.500Z,39.63
2023-02-23T00:37:49.857Z,38.20
2023-02-23T00:40:20.050Z,39.17
2023-02-23T00:42:49.318Z,38.57
2023-02-23T00:45:16.246Z,40.80
2023-02-23T00:47:44.397Z,41.20
2023-02-23T00:50:17.054Z,39.50
2023-02-23T00:52:44.434Z,40.67
2023-02-23T00:55:13.360Z,39.53
2023-02-23T00:57:40.264Z,39.70
2023-02-23T01:00:18.766Z,40.73
2023-02-23T01:02:45.771Z,40.70
2023-02-23T01:05:13.576Z,40.90
2023-02-23T01:07:40.814Z,40.53
2023-02-23T01:10:19.180Z,42.10
2023-02-23T01:12:48.173Z,41.00
2023-02-23T01:15:15.288Z,44.80
2023-02-23T01:17:42.967Z,42.73
2023-02-23T01:20:17.733Z,45.07
2023-02-23T01:22:46.783Z,41.93
2023-02-23T01:25:14.031Z,43.63
2023-02-23T01:27:41.738Z,43.20
2023-02-23T01:30:11.622Z,43.10
2023-02-23T01:32:39.145Z,42.50
2023-02-23T01:35:10.468Z,43.17
2023-02-23T01:37:40.606Z,43.53
2023-02-23T01:40:14.782Z,42.80
2023-02-23T01:42:44.174Z,40.57
2023-02-23T01:45:31.150Z,42.27
2023-02-23T01:48:04.505Z,39.40
2023-02-23T01:50:38.753Z,41.03
2023-02-23T01:53:06.030Z,39.07
2023-02-23T01:55:32.783Z,39.73
2023-02-23T01:58:06.674Z,41.47
2023-02-23T02:00:36.998Z,41.93
2023-02-23T02:03:12.077Z,37.90
2023-02-23T02:05:40.830Z,41.20
2023-02-23T02:08:10.267Z,39.10
2023-02-23T02:10:44.929Z,39.80
2023-02-23T02:13:18.179Z,38.77
2023-02-23T02:15:53.967Z,40.90
2023-02-23T02:18:38.127Z,40.57
2023-02-23T02:21:42.594Z,40.20
2023-02-23T02:24:54.448Z,40.97
2023-02-23T02:27:57.980Z,40.00
2023-02-23T02:30:27.507Z,40.00
2023-02-23T02:33:34.562Z,44.47
2023-02-23T02:36:20.376Z,40.40
2023-02-23T02:39:22.759Z,42.00
2023-02-23T02:42:07.084Z,44.57
2023-02-23T02:44:42.917Z,45.50
2023-02-23T02:47:17.114Z,42.90
2023-02-23T02:50:08.600Z,42.43
2023-02-23T02:52:47.284Z,45.03
2023-02-23T02:55:18.742Z,41.87
2023-02-23T02:57:46.880Z,44.80
2023-02-23T03:00:38.155Z,46.00
2023-02-23T03:03:23.584Z,42.93
2023-02-23T03:06:13.176Z,42.20
2023-02-23T03:09:01.875Z,44.20
2023-02-23T03:12:04.405Z,45.57
2023-02-23T03:15:16.150Z,44.47
2023-02-23T03:18:18.924Z,45.40
2023-02-23T03:21:12.889Z,42.70
2023-02-23T03:24:27.437Z,43.40
2023-02-23T03:27:22.956Z,44.47
2023-02-23T03:30:19.150Z,43.17
2023-02-23T03:33:14.583Z,42.93
2023-02-23T03:36:07.785Z,42.00
2023-02-23T03:39:05.255Z,43.67
2023-02-23T03:41:52.482Z,43.27
2023-02-23T03:44:44.427Z,43.80
2023-02-23T03:47:31.497Z,45.17
2023-02-23T03:50:19.781Z,42.17
2023-02-23T03:53:11.017Z,43.73
2023-02-23T03:56:01.590Z,44.00
2023-02-23T03:58:49.165Z,44.10
2023-02-23T04:01:37.437Z,42.07
2023-02-23T04:04:27.475Z,41.70
2023-02-23T04:07:17.717Z,47.13
2023-02-23T04:10:04.859Z,46.27
2023-02-23T04:13:13.715Z,45.37
2023-02-23T04:16:00.512Z,47.83
2023-02-23T04:18:34.015Z,47.97
2023-02-23T04:21:03.141Z,51.23
2023-02-23T04:23:31.134Z,49.90
2023-02-23T04:25:58.741Z,49.40
2023-02-23T04:28:28.344Z,48.90
2023-02-23T04:30:56.126Z,47.50
2023-02-23T04:33:25.672Z,49.13
2023-02-23T04:35:54.186Z,47.43
2023-02-23T04:38:22.189Z,49.67
2023-02-23T04:40:49.180Z,48.93
2023-02-23T04:43:16.549Z,47.30
2023-02-23T04:45:45.444Z,47.83
2023-02-23T04:48:12.635Z,49.97
2023-02-23T04:50:39.732Z,49.40
2023-02-23T04:53:06.792Z,48.00
2023-02-23T04:55:34.431Z,51.10
2023-02-23T04:58:02.257Z,51.00
2023-02-23T05:00:30.113Z,49.63
2023-02-23T05:02:57.781Z,51.97
2023-02-23T05:05:24.981Z,50.70
2023-02-23T05:07:53.013Z,51.73
2023-02-23T05:10:19.938Z,51.03
2023-02-23T05:12:47.148Z,47.30
2023-02-23T05:15:14.445Z,47.60
2023-02-23T05:17:42.270Z,49.70
2023-02-23T05:20:12.938Z,49.00
2023-02-23T05:22:42.469Z,49.00
2023-02-23T05:25:11.836Z,50.63
2023-02-23T05:27:40.546Z,47.03
2023-02-23T05:30:10.548Z,49.00
2023-02-23T05:32:38.020Z,50.57
2023-02-23T05:35:05.725Z,49.03
2023-02-23T05:37:33.827Z,49.53
2023-02-23T05:40:00.794Z,50.97
2023-02-23T05:42:27.738Z,49.90
2023-02-23T05:44:55.288Z,49.57
2023-02-23T05:47:22.139Z,50.47
2023-02-23T05:49:49.295Z,50.07
2023-02-23T05:52:16.168Z,49.33
2023-02-23T05:54:43.775Z,49.80
2023-02-23T05:57:10.659Z,49.27
2023-02-23T05:59:37.542Z,48.70
2023-02-23T06:02:07.088Z,48.60
2023-02-23T06:04:34.466Z,44.00
2023-02-23T06:07:01.506Z,51.10
2023-02-23T06:09:28.514Z,49.20
2023-02-23T06:11:55.733Z,50.17
2023-02-23T06:14:22.649Z,50.43
2023-02-23T06:16:49.578Z,47.60
2023-02-23T06:19:16.880Z,48.67
2023-02-23T06:21:44.688Z,47.27
2023-02-23T06:24:12.359Z,50.77
2023-02-23T06:26:39.459Z,48.30
2023-02-23T06:29:06.385Z,49.47
2023-02-23T06:31:33.243Z,47.77
2023-02-23T06:34:00.204Z,45.70
2023-02-23T06:36:27.304Z,47.70
2023-02-23T06:38:58.184Z,45.77
2023-02-23T06:41:26.016Z,49.23
2023-02-23T06:43:53.069Z,48.37
2023-02-23T06:46:20.030Z,48.50
2023-02-23T06:48:47.192Z,48.37
2023-02-23T06:51:14.799Z,47.40
2023-02-23T06:53:41.664Z,47.03
2023-02-23T06:56:08.616Z,47.03
2023-02-23T06:58:35.705Z,45.47
2023-02-23T07:01:02.787Z,45.00
2023-02-23T07:03:29.750Z,49.50
2023-02-23T07:05:56.911Z,46.00
2023-02-23T07:08:23.869Z,48.37
2023-02-23T07:10:50.806Z,46.80
2023-02-23T07:13:17.888Z,46.37
2023-02-23T07:15:45.525Z,47.87
2023-02-23T07:18:12.468Z,46.10
2023-02-23T07:20:39.331Z,43.27
2023-02-23T07:23:06.223Z,44.27
2023-02-23T07:25:33.286Z,45.40
2023-02-23T07:28:00.333Z,45.50
2023-02-23T07:30:28.130Z,44.60
2023-02-23T07:32:55.075Z,41.20
2023-02-23T07:35:22.093Z,40.83
2023-02-23T07:37:48.998Z,43.20
2023-02-23T07:40:16.180Z,42.60
2023-02-23T07:42:43.474Z,42.47
2023-02-23T07:45:11.436Z,44.87
2023-02-23T07:47:39.457Z,39.67
2023-02-23T07:50:14.127Z,40.90
2023-02-23T07:52:42.709Z,41.17
2023-02-23T07:55:10.851Z,41.47
2023-02-23T07:57:38.698Z,39.60
2023-02-23T08:00:06.856Z,40.07
2023-02-23T08:02:35.012Z,42.77
2023-02-23T08:05:03.141Z,41.70
2023-02-23T08:07:33.749Z,40.27
2023-02-23T08:10:00.744Z,38.77
2023-02-23T08:12:27.821Z,37.93
2023-02-23T08:14:54.847Z,38.50
2023-02-23T08:17:21.802Z,37.87
2023-02-23T08:19:49.957Z,37.60
2023-02-23T08:22:17.034Z,36.83
2023-02-23T08:24:44.257Z,35.83
2023-02-23T08:27:11.261Z,35.03
2023-02-23T08:29:38.875Z,33.37
2023-02-23T08:32:06.278Z,33.87
2023-02-23T08:34:40.950Z,37.50
2023-02-23T08:37:08.446Z,37.53
2023-02-23T08:39:35.406Z,36.83
2023-02-23T08:42:02.814Z,38.83
2023-02-23T08:44:29.758Z,37.60
2023-02-23T08:46:58.363Z,39.73
2023-02-23T08:49:25.922Z,37.13
2023-02-23T08:51:52.905Z,36.07
2023-02-23T08:54:20.479Z,36.00
2023-02-23T08:56:50.408Z,38.47
2023-02-23T08:59:17.462Z,36.77
2023-02-23T09:01:44.546Z,36.23
2023-02-23T09:04:11.588Z,34.50
2023-02-23T09:06:38.639Z,35.50
2023-02-23T09:09:05.738Z,33.00
2023-02-23T09:11:32.769Z,33.97
2023-02-23T09:14:00.139Z,36.43
2023-02-23T09:16:27.155Z,32.30
2023-02-23T09:18:54.560Z,32.03
2023-02-23T09:21:25.451Z,32.37
2023-02-23T09:23:55.981Z,31.33
2023-02-23T09:26:24.648Z,35.33
2023-02-23T09:28:51.749Z,30.80
2023-02-23T09:31:22.657Z,29.67
2023-02-23T09:33:50.662Z,31.37
2023-02-23T09:36:22.479Z,35.80
2023-02-23T09:38:55.467Z,31.60
2023-02-23T09:41:41.283Z,31.67
2023-02-23T09:44:53.466Z,30.30
2023-02-23T09:47:30.730Z,30.60
2023-02-23T09:50:04.311Z,29.70
2023-02-23T09:52:42.494Z,27.87
2023-02-23T09:55:13.266Z,29.83
2023-02-23T09:57:43.804Z,27.70
2023-02-23T10:00:37.150Z,28.00
2023-02-23T10:03:14.716Z,26.63
2023-02-23T10:05:47.915Z,27.87
2023-02-23T10:08:30.167Z,28.30
2023-02-23T10:11:32.105Z,28.37
2023-02-23T10:14:16.464Z,29.87
2023-02-23T10:17:14.569Z,30.47
2023-02-23T10:20:07.966Z,29.67
2023-02-23T10:22:36.278Z,28.30
2023-02-23T10:25:10.307Z,28.93
2023-02-23T10:27:42.135Z,28.80
2023-02-23T10:30:27.800Z,27.40
2023-02-23T10:33:16.563Z,29.27
2023-02-23T10:35:44.836Z,27.27
2023-02-23T10:38:19.446Z,28.87
2023-02-23T10:40:53.920Z,30.43
2023-02-23T10:43:20.909Z,27.33
2023-02-23T10:45:51.099Z,27.20
2023-02-23T10:48:22.500Z,28.33
2023-02-23T10:50:51.637Z,26.83
2023-02-23T10:53:27.591Z,26.97
2023-02-23T10:56:10.994Z,26.20
2023-02-23T10:58:43.783Z,26.50
2023-02-23T11:01:11.815Z,27.00
2023-02-23T11:03:57.600Z,28.40
2023-02-23T11:06:31.562Z,28.20
2023-02-23T11:08:58.519Z,28.83
2023-02-23T11:11:29.062Z,28.70
2023-02-23T11:13:57.355Z,28.57
2023-02-23T11:16:29.081Z,26.30
2023-02-23T11:19:02.603Z,26.27
2023-02-23T11:21:33.520Z,27.57
2023-02-23T11:24:25.720Z,27.70
2023-02-23T11:27:03.888Z,25.00
2023-02-23T11:29:41.575Z,25.87
2023-02-23T11:32:13.800Z,25.87
2023-02-23T11:34:41.793Z,24.87
2023-02-23T11:37:20.921Z,27.20
2023-02-23T11:39:58.139Z,24.93
2023-02-23T11:42:34.289Z,26.57
2023-02-23T11:45:07.686Z,25.60
2023-02-23T11:47:40.265Z,24.97
2023-02-23T11:50:11.045Z,23.37
2023-02-23T11:52:38.058Z,23.03
2023-02-23T11:55:16.904Z,23.80
2023-02-23T11:57:43.904Z,23.17
2023-02-23T12:00:14.251Z,17.93
2023-02-23T12:02:52.348Z,19.20
2023-02-23T12:05:24.198Z,17.70
2023-02-23T12:08:05.941Z,19.60
2023-02-23T12:10:53.832Z,18.30
2023-02-23T12:13:27.282Z,17.33
2023-02-23T12:16:07.099Z,16.60
2023-02-23T12:19:06.991Z,15.47
2023-02-23T12:21:47.452Z,14.87
2023-02-23T12:24:18.571Z,14.87
2023-02-23T12:27:00.524Z,17.50
2023-02-23T12:29:44.623Z,16.67
2023-02-23T12:32:28.645Z,16.33
2023-02-23T12:35:02.184Z,18.20
2023-02-23T12:37:42.486Z,17.20
2023-02-23T12:40:22.361Z,18.33
2023-02-23T12:43:18.074Z,18.60
2023-02-23T12:46:08.509Z,18.13
2023-02-23T12:49:07.990Z,19.87
2023-02-23T12:52:16.581Z,20.90
2023-02-23T12:54:47.241Z,18.27
2023-02-23T12:57:20.403Z,19.87
2023-02-23T12:59:55.628Z,18.63
2023-02-23T13:02:49.731Z,20.10
2023-02-23T13:05:32.668Z,19.60
2023-02-23T13:08:34.894Z,19.10
2023-02-23T13:11:11.285Z,21.40
2023-02-23T13:13:47.311Z,21.13
2023-02-23T13:16:35.707Z,21.23
2023-02-23T13:19:23.969Z,21.57
2023-02-23T13:22:36.678Z,21.43
2023-02-23T13:25:33.997Z,21.30
2023-02-23T13:28:02.837Z,21.30
2023-02-23T13:30:35.541Z,21.97
2023-02-23T13:33:13.262Z,23.27
2023-02-23T13:35:42.312Z,22.27
2023-02-23T13:38:32.375Z,21.63
2023-02-23T13:41:14.250Z,21.50
2023-02-23T13:43:53.417Z,22.30
2023-02-23T13:46:43.370Z,23.03
2023-02-23T13:49:35.191Z,22.27
2023-02-23T13:52:16.936Z,25.30
2023-02-23T13:55:04.538Z,23.87
2023-02-23T13:57:33.049Z,23.27
2023-02-23T14:00:00.854Z,24.57
2023-02-23T14:02:38.818Z,22.33
2023-02-23T14:05:29.124Z,24.57
2023-02-23T14:08:02.495Z,23.47
2023-02-23T14:10:43.799Z,23.37
2023-02-23T14:13:14.023Z,25.67
2023-02-23T14:16:08.080Z,23.90
2023-02-23T14:18:35.462Z,23.73
2023-02-23T14:21:30.048Z,24.73
2023-02-23T14:24:12.148Z,24.10
2023-02-23T14:26:42.865Z,24.80
2023-02-23T14:29:16.890Z,24.27
2023-02-23T14:32:13.892Z,22.80
2023-02-23T14:34:51.413Z,23.70
2023-02-23T14:37:25.705Z,24.00
2023-02-23T14:39:56.620Z,21.17
2023-02-23T14:42:29.905Z,22.10
2023-02-23T14:45:03.296Z,18.10
2023-02-23T14:47:30.348Z,19.60
2023-02-23T14:50:01.938Z,18.70
2023-02-23T14:52:33.170Z,17.20
2023-02-23T14:55:08.623Z,17.70
2023-02-23T14:57:38.030Z,17.67
2023-02-23T15:00:23.080Z,17.40
2023-02-23T15:02:57.366Z,16.80
2023-02-23T15:05:28.083Z,18.40
2023-02-23T15:07:59.195Z,17.70
2023-02-23T15:10:32.393Z,15.77
2023-02-23T15:13:01.251Z,15.90
2023-02-23T15:15:28.641Z,14.77
2023-02-23T15:17:58.876Z,14.80
2023-02-23T15:23:03.847Z,16.77
2023-02-23T15:25:41.137Z,15.83
2023-02-23T15:28:27.097Z,15.80
2023-02-23T15:30:59.718Z,16.23
2023-02-23T15:33:30.366Z,14.73
2023-02-23T15:36:08.204Z,18.13
2023-02-23T15:38:47.788Z,16.20
2023-02-23T15:41:29.222Z,16.70
2023-02-23T15:44:19.167Z,13.60
2023-02-23T15:46:57.134Z,15.63
2023-02-23T15:49:31.099Z,12.53
2023-02-23T15:52:02.342Z,11.70
2023-02-23T15:54:35.212Z,15.80
2023-02-23T15:57:29.378Z,13.53
2023-02-23T15:59:58.871Z,13.73
2023-02-23T16:02:26.058Z,13.57
2023-02-23T16:04:53.923Z,13.07
2023-02-23T16:07:28.610Z,13.20
2023-02-23T16:10:02.230Z,14.60
2023-02-23T16:12:35.068Z,12.90
2023-02-23T16:15:06.352Z,11.63
2023-02-23T16:17:44.200Z,10.73
2023-02-23T16:20:21.462Z,11.80
2023-02-23T16:22:53.595Z,12.77
2023-02-23T16:25:24.849Z,12.30
2023-02-23T16:28:08.263Z,12.93
2023-02-23T16:30:43.051Z,10.87
2023-02-23T16:33:25.516Z,12.20
2023-02-23T16:36:15.944Z,12.47
2023-02-23T16:39:06.374Z,12.00
2023-02-23T16:41:34.726Z,12.57
2023-02-23T16:44:07.202Z,12.67
2023-02-23T16:46:54.133Z,11.87
2023-02-23T16:49:23.333Z,14.53
2023-02-23T16:51:51.708Z,12.47
2023-02-23T16:54:18.661Z,13.00
2023-02-23T16:56:47.463Z,12.83
2023-02-23T16:59:18.499Z,11.33
2023-02-23T17:01:46.647Z,10.90
2023-02-23T17:04:15.848Z,12.13
2023-02-23T17:06:43.983Z,11.53
2023-02-23T17:09:12.693Z,10.90
2023-02-23T17:11:43.977Z,11.77
2023-02-23T17:14:23.946Z,13.00
2023-02-23T17:16:51.835Z,13.20
2023-02-23T17:19:20.328Z,11.63
2023-02-23T17:21:48.654Z,12.23
2023-02-23T17:24:15.400Z,13.23
2023-02-23T17:26:42.312Z,12.70
2023-02-23T17:29:08.976Z,12.40
2023-02-23T17:31:38.044Z,12.97
2023-02-23T17:34:05.080Z,14.33
2023-02-23T17:36:31.777Z,13.57
2023-02-23T17:38:59.119Z,14.20
2023-02-23T17:41:27.079Z,13.17
2023-02-23T17:43:54.035Z,15.07
2023-02-23T17:46:20.893Z,15.50
2023-02-23T17:48:47.563Z,14.57
2023-02-23T17:51:16.827Z,14.47
2023-02-23T17:53:44.120Z,15.43
2023-02-23T17:56:10.971Z,15.50
2023-02-23T17:58:38.425Z,15.97
2023-02-23T18:01:07.208Z,15.30
2023-02-23T18:03:36.255Z,16.23
2023-02-23T18:06:09.409Z,14.83
2023-02-23T18:08:38.311Z,15.53
2023-02-23T18:11:05.272Z,13.60
2023-02-23T18:13:36.352Z,15.47
2023-02-23T18:16:09.125Z,15.80
2023-02-23T18:18:40.676Z,14.80
2023-02-23T18:21:12.417Z,15.07
2023-02-23T18:23:39.498Z,15.30
2023-02-23T18:26:08.581Z,14.90
2023-02-23T18:28:35.769Z,14.87
2023-02-23T18:31:02.834Z,17.37
2023-02-23T18:33:31.382Z,16.40
2023-02-23T18:35:58.507Z,15.33
2023-02-23T18:38:25.608Z,15.27
2023-02-23T18:40:52.509Z,15.77
2023-02-23T18:43:19.154Z,14.37
2023-02-23T18:45:45.762Z,15.57
2023-02-23T18:48:14.015Z,16.10
2023-02-23T18:50:41.190Z,15.67
2023-02-23T18:53:10.769Z,16.20
2023-02-23T18:55:38.315Z,16.17
2023-02-23T18:58:05.811Z,15.00
2023-02-23T19:00:40.385Z,15.83
2023-02-23T19:03:07.358Z,15.63
2023-02-23T19:05:36.109Z,15.20
2023-02-23T19:08:03.605Z,14.53
2023-02-23T19:10:30.532Z,14.93
2023-02-23T19:12:57.343Z,16.43
2023-02-23T19:15:24.098Z,14.23
2023-02-23T19:17:50.865Z,16.27
2023-02-23T19:20:17.806Z,15.87
2023-02-23T19:22:45.717Z,16.20
2023-02-23T19:25:14.151Z,16.93
2023-02-23T19:27:41.473Z,15.70
2023-02-23T19:30:10.006Z,15.07
2023-02-23T19:32:39.420Z,15.13
2023-02-23T19:35:09.113Z,14.60
2023-02-23T19:37:36.579Z,8.50
2023-02-23T19:40:03.981Z,8.50
2023-02-23T19:42:32.999Z,8.07
2023-02-23T19:44:59.776Z,7.10
2023-02-23T19:47:26.503Z,7.20
2023-02-23T19:49:53.634Z,7.20
2023-02-23T19:52:20.395Z,7.33
2023-02-23T19:54:47.051Z,7.03
2023-02-23T19:57:13.776Z,6.10
2023-02-23T19:59:41.048Z,8.10
2023-02-23T20:02:10.745Z,8.70
2023-02-23T20:04:37.435Z,7.07
2023-02-23T20:07:04.086Z,7.87
2023-02-23T20:09:30.760Z,7.70
2023-02-23T20:11:57.714Z,7.00
2023-02-23T20:14:24.922Z,6.43
2023-02-23T20:16:51.716Z,7.10
2023-02-23T20:19:19.644Z,6.07
2023-02-23T20:21:46.355Z,6.00
2023-02-23T20:24:13.366Z,6.10
2023-02-23T20:26:40.182Z,6.33
2023-02-23T20:29:10.763Z,5.07
2023-02-23T20:31:41.602Z,7.80
2023-02-23T20:34:10.925Z,5.73
2023-02-23T20:36:38.289Z,5.77
2023-02-23T20:39:05.408Z,5.93
2023-02-23T20:41:32.752Z,5.63
2023-02-23T20:44:01.175Z,6.30
2023-02-23T20:46:31.601Z,5.60
2023-02-23T20:48:59.304Z,4.60
2023-02-23T20:51:26.680Z,6.57
2023-02-23T20:53:53.341Z,6.47
2023-02-23T20:56:21.849Z,6.50
2023-02-23T20:58:49.346Z,5.97
2023-02-23T21:01:23.502Z,7.13
2023-02-23T21:03:51.717Z,5.60
2023-02-23T21:06:20.369Z,5.40
2023-02-23T21:08:50.800Z,5.60
2023-02-23T21:11:20.366Z,6.27
2023-02-23T21:13:47.305Z,5.90
2023-02-23T21:16:16.898Z,5.23
2023-02-23T21:18:44.072Z,5.97
2023-02-23T21:21:11.399Z,8.00
2023-02-23T21:23:40.114Z,6.47
2023-02-23T21:26:13.121Z,5.30
2023-02-23T21:28:44.279Z,5.00
2023-02-23T21:31:12.807Z,6.13
2023-02-23T21:33:41.372Z,5.10
2023-02-23T21:36:12.383Z,5.33
2023-02-23T21:38:41.323Z,6.00
2023-02-23T21:41:08.969Z,6.23
2023-02-23T21:43:36.937Z,5.90
2023-02-23T21:46:16.661Z,7.17
2023-02-23T21:48:44.218Z,6.40
2023-02-23T21:51:14.121Z,5.90
2023-02-23T21:53:41.652Z,5.87
2023-02-23T21:56:11.769Z,5.37
2023-02-23T21:58:43.131Z,5.93
2023-02-23T22:01:14.916Z,6.33
2023-02-23T22:03:44.870Z,6.80
2023-02-23T22:06:19.659Z,7.60
2023-02-23T22:08:48.111Z,8.10
2023-02-23T22:11:18.020Z,8.43
2023-02-23T22:13:49.472Z,8.70
2023-02-23T22:16:19.260Z,6.20
2023-02-23T22:18:46.755Z,9.87
2023-02-23T22:21:13.988Z,11.67
2023-02-23T22:23:41.674Z,11.10
2023-02-23T22:26:08.986Z,10.60
2023-02-23T22:28:36.519Z,9.07
2023-02-23T22:31:09.861Z,8.83
2023-02-23T22:33:39.367Z,10.10
2023-02-23T22:36:08.119Z,8.77
2023-02-23T22:38:35.367Z,9.47
2023-02-23T22:41:02.087Z,9.60
2023-02-23T22:43:30.590Z,9.60
2023-02-23T22:45:58.031Z,8.23
2023-02-23T22:48:24.968Z,7.77
2023-02-23T22:50:51.621Z,8.20
2023-02-23T22:53:18.345Z,8.13
2023-02-23T22:55:49.344Z,7.50
2023-02-23T22:58:16.693Z,6.33
2023-02-23T23:01:01.977Z,5.50
2023-02-23T23:03:49.399Z,6.40
2023-02-23T23:06:21.786Z,6.13
2023-02-23T23:08:52.130Z,6.47
2023-02-23T23:11:23.631Z,7.17
2023-02-23T23:13:53.220Z,6.60
2023-02-23T23:16:31.685Z,5.90
2023-02-23T23:19:07.768Z,7.07
2023-02-23T23:21:36.208Z,5.30
2023-02-23T23:24:05.607Z,5.73
2023-02-23T23:26:35.230Z,7.07
2023-02-23T23:29:04.741Z,6.87
2023-02-23T23:31:35.052Z,6.17
2023-02-23T23:34:04.997Z,5.63
2023-02-23T23:36:37.216Z,6.70
2023-02-23T23:39:06.095Z,5.07
2023-02-23T23:41:35.862Z,7.90
2023-02-23T23:44:05.133Z,6.10
2023-02-23T23:46:38.630Z,6.70
2023-02-23T23:49:08.203Z,5.87
2023-02-23T23:51:39.220Z,7.30
2023-02-23T23:54:07.895Z,8.10
2023-02-23T23:56:38.969Z,6.47
2023-02-23T23:59:08.897Z,6.30
